createdAt,value
2022-08-28T00:00:13.744Z,18.59
2022-08-28T00:03:01.284Z,18.57
2022-08-28T00:05:31.978Z,18.55
2022-08-28T00:08:00.416Z,18.54
2022-08-28T00:10:28.505Z,18.49
2022-08-28T00:12:57.673Z,18.42
2022-08-28T00:15:31.606Z,18.38
2022-08-28T00:17:59.387Z,18.35
2022-08-28T00:20:28.460Z,18.33
2022-08-28T00:22:56.113Z,18.32
2022-08-28T00:25:26.082Z,18.31
2022-08-28T00:28:01.315Z,18.28
2022-08-28T00:30:35.986Z,18.22
2022-08-28T00:33:13.929Z,18.17
2022-08-28T00:35:43.051Z,18.12
2022-08-28T00:38:12.184Z,18.09
2022-08-28T00:40:44.168Z,18.06
2022-08-28T00:43:37.886Z,18.06
2022-08-28T00:46:13.021Z,18.05
2022-08-28T00:48:40.216Z,18.02
2022-08-28T00:51:26.816Z,17.98
2022-08-28T00:53:58.733Z,17.93
2022-08-28T00:56:29.465Z,17.90
2022-08-28T00:59:02.565Z,17.87
2022-08-28T01:01:29.613Z,17.82
2022-08-28T01:03:56.754Z,17.77
2022-08-28T01:06:24.138Z,17.73
2022-08-28T01:08:53.296Z,17.69
2022-08-28T01:11:21.115Z,17.64
2022-08-28T01:13:50.603Z,17.58
2022-08-28T01:16:19.547Z,17.53
2022-08-28T01:18:49.222Z,17.45
2022-08-28T01:21:36.347Z,17.36
2022-08-28T01:24:11.337Z,17.28
2022-08-28T01:26:38.492Z,17.21
2022-08-28T01:29:08.068Z,17.15
2022-08-28T01:31:37.425Z,17.12
2022-08-28T01:34:07.122Z,17.08
2022-08-28T01:36:34.691Z,17.05
2022-08-28T01:39:24.090Z,17.03
2022-08-28T01:41:54.235Z,17.00
2022-08-28T01:44:25.190Z,16.99
2022-08-28T01:46:55.705Z,16.97
2022-08-28T01:49:24.579Z,16.93
2022-08-28T01:51:52.338Z,16.92
2022-08-28T01:54:22.219Z,16.91
2022-08-28T01:56:49.512Z,16.90
2022-08-28T01:59:17.750Z,16.89
2022-08-28T02:01:44.873Z,16.89
2022-08-28T02:04:12.517Z,16.91
2022-08-28T02:06:41.201Z,16.94
2022-08-28T02:09:14.589Z,16.96
2022-08-28T02:11:42.869Z,16.95
2022-08-28T02:14:14.592Z,16.94
2022-08-28T02:16:41.709Z,16.93
2022-08-28T02:19:09.641Z,16.91
2022-08-28T02:21:36.722Z,16.89
2022-08-28T02:24:04.469Z,16.86
2022-08-28T02:26:33.159Z,16.86
2022-08-28T02:29:01.324Z,16.84
2022-08-28T02:31:38.152Z,16.79
2022-08-28T02:34:05.870Z,16.75
2022-08-28T02:36:33.287Z,16.73
2022-08-28T02:39:00.824Z,16.71
2022-08-28T02:41:27.856Z,16.70
2022-08-28T02:43:54.877Z,16.66
2022-08-28T02:46:21.984Z,16.62
2022-08-28T02:48:49.831Z,16.59
2022-08-28T02:51:17.528Z,16.56
2022-08-28T02:53:44.523Z,16.53
2022-08-28T02:56:11.896Z,16.50
2022-08-28T02:58:40.141Z,16.47
2022-08-28T03:01:10.427Z,16.44
2022-08-28T03:03:39.207Z,16.45
2022-08-28T03:06:14.055Z,16.46
2022-08-28T03:08:43.263Z,16.47
2022-08-28T03:11:11.539Z,16.48
2022-08-28T03:13:38.730Z,16.47
2022-08-28T03:16:06.014Z,16.44
2022-08-28T03:18:33.198Z,16.43
2022-08-28T03:21:00.427Z,16.42
2022-08-28T03:23:27.552Z,16.41
2022-08-28T03:26:05.578Z,16.38
2022-08-28T03:28:39.754Z,16.37
2022-08-28T03:31:09.563Z,16.36
2022-08-28T03:33:37.258Z,16.38
2022-08-28T03:36:05.687Z,16.40
2022-08-28T03:38:33.399Z,16.44
2022-08-28T03:41:01.212Z,16.46
2022-08-28T03:43:28.591Z,16.46
2022-08-28T03:46:02.251Z,16.44
2022-08-28T03:48:36.493Z,16.45
2022-08-28T03:51:13.294Z,16.46
2022-08-28T03:53:41.853Z,16.47
2022-08-28T03:56:16.746Z,16.50
2022-08-28T03:58:44.526Z,16.54
2022-08-28T04:01:11.689Z,16.60
2022-08-28T04:03:39.000Z,16.68
2022-08-28T04:06:06.935Z,16.77
2022-08-28T04:08:34.037Z,16.85
2022-08-28T04:11:01.290Z,16.93
2022-08-28T04:13:29.114Z,17.02
2022-08-28T04:16:10.011Z,17.12
2022-08-28T04:18:40.468Z,17.22
2022-08-28T04:21:15.164Z,17.33
2022-08-28T04:23:44.412Z,17.44
2022-08-28T04:26:22.025Z,17.56
2022-08-28T04:28:52.744Z,17.68
2022-08-28T04:31:31.972Z,17.81
2022-08-28T04:34:05.985Z,17.92
2022-08-28T04:36:35.796Z,17.96
2022-08-28T04:39:08.064Z,18.00
2022-08-28T04:41:38.582Z,18.02
2022-08-28T04:44:06.538Z,18.03
2022-08-28T04:46:34.030Z,18.03
2022-08-28T04:49:01.159Z,18.03
2022-08-28T04:51:28.780Z,18.06
2022-08-28T04:53:57.258Z,18.10
2022-08-28T04:56:24.548Z,18.17
2022-08-28T04:58:55.089Z,18.27
2022-08-28T05:01:24.194Z,18.36
2022-08-28T05:03:58.651Z,18.46
2022-08-28T05:06:28.630Z,18.58
2022-08-28T05:09:01.366Z,18.72
2022-08-28T05:11:34.022Z,18.85
2022-08-28T05:14:12.672Z,19.00
2022-08-28T05:16:52.508Z,19.13
2022-08-28T05:19:20.521Z,19.30
2022-08-28T05:21:47.613Z,19.46
2022-08-28T05:24:15.801Z,19.63
2022-08-28T05:26:43.092Z,19.80
2022-08-28T05:29:11.696Z,19.97
2022-08-28T05:31:40.831Z,20.14
2022-08-28T05:34:09.791Z,20.30
2022-08-28T05:36:38.989Z,20.45
2022-08-28T05:39:10.190Z,20.59
2022-08-28T05:41:41.796Z,20.72
2022-08-28T05:44:12.041Z,20.81
2022-08-28T05:46:44.047Z,20.98
2022-08-28T05:49:12.922Z,21.10
2022-08-28T05:51:42.251Z,21.25
2022-08-28T05:54:10.997Z,21.39
2022-08-28T05:56:40.126Z,21.54
2022-08-28T05:59:10.304Z,21.69
2022-08-28T06:01:47.563Z,21.85
2022-08-28T06:04:22.874Z,21.99
2022-08-28T06:06:50.992Z,22.13
2022-08-28T06:09:29.925Z,22.28
2022-08-28T06:12:02.432Z,22.43
2022-08-28T06:14:30.616Z,22.60
2022-08-28T06:16:59.215Z,22.75
2022-08-28T06:19:29.504Z,22.88
2022-08-28T06:22:01.348Z,23.03
2022-08-28T06:24:35.470Z,23.16
2022-08-28T06:27:02.518Z,23.30
2022-08-28T06:29:30.364Z,23.48
2022-08-28T06:32:04.363Z,23.59
2022-08-28T06:34:32.127Z,23.73
2022-08-28T06:37:00.149Z,23.87
2022-08-28T06:39:27.626Z,24.00
2022-08-28T06:41:54.759Z,24.13
2022-08-28T06:44:22.420Z,24.25
2022-08-28T06:46:53.392Z,24.35
2022-08-28T06:49:22.071Z,24.48
2022-08-28T06:51:50.030Z,24.61
2022-08-28T06:54:22.332Z,24.72
2022-08-28T06:56:54.240Z,24.83
2022-08-28T06:59:21.621Z,24.91
2022-08-28T07:01:48.897Z,25.01
2022-08-28T07:04:16.214Z,25.11
2022-08-28T07:06:46.561Z,25.23
2022-08-28T07:09:17.548Z,25.34
2022-08-28T07:11:46.194Z,25.46
2022-08-28T07:14:13.571Z,25.57
2022-08-28T07:16:41.296Z,25.66
2022-08-28T07:19:11.457Z,25.78
2022-08-28T07:21:45.194Z,25.92
2022-08-28T07:24:14.734Z,26.05
2022-08-28T07:26:47.617Z,26.13
2022-08-28T07:29:15.517Z,26.19
2022-08-28T07:31:48.598Z,26.25
2022-08-28T07:34:19.842Z,26.32
2022-08-28T07:36:48.188Z,26.40
2022-08-28T07:39:15.667Z,26.46
2022-08-28T07:41:43.367Z,26.59
2022-08-28T07:44:31.934Z,26.74
2022-08-28T07:47:04.214Z,26.87
2022-08-28T07:49:34.712Z,26.97
2022-08-28T07:52:03.337Z,27.11
2022-08-28T07:54:30.718Z,27.19
2022-08-28T07:56:57.931Z,27.24
2022-08-28T07:59:34.168Z,27.34
2022-08-28T08:02:05.359Z,27.47
2022-08-28T08:04:36.020Z,27.58
2022-08-28T08:07:04.889Z,27.67
2022-08-28T08:09:37.121Z,27.74
2022-08-28T08:12:05.372Z,27.85
2022-08-28T08:14:33.175Z,27.97
2022-08-28T08:17:04.703Z,28.09
2022-08-28T08:19:36.054Z,28.20
2022-08-28T08:22:03.635Z,28.28
2022-08-28T08:24:31.444Z,28.30
2022-08-28T08:27:01.465Z,28.30
2022-08-28T08:29:33.415Z,28.38
2022-08-28T08:32:09.279Z,28.45
2022-08-28T08:34:45.767Z,28.48
2022-08-28T08:37:13.789Z,28.51
2022-08-28T08:39:43.126Z,28.55
2022-08-28T08:42:29.517Z,28.55
2022-08-28T08:45:03.829Z,28.62
2022-08-28T08:47:53.254Z,28.72
2022-08-28T08:50:29.996Z,28.76
2022-08-28T08:53:42.177Z,28.75
2022-08-28T08:56:21.553Z,28.79
2022-08-28T08:58:53.994Z,28.92
2022-08-28T09:01:43.875Z,29.01
2022-08-28T09:04:46.042Z,29.15
2022-08-28T09:07:43.344Z,29.21
2022-08-28T09:10:15.387Z,29.26
2022-08-28T09:13:25.909Z,29.19
2022-08-28T09:15:56.967Z,29.39
2022-08-28T09:18:33.688Z,29.46
2022-08-28T09:21:04.430Z,29.52
2022-08-28T09:23:31.673Z,29.62
2022-08-28T09:26:08.778Z,29.70
2022-08-28T09:28:41.501Z,29.85
2022-08-28T09:31:15.299Z,29.96
2022-08-28T09:33:50.902Z,30.11
2022-08-28T09:36:21.498Z,30.22
2022-08-28T09:39:23.934Z,30.25
2022-08-28T09:42:34.063Z,30.35
2022-08-28T09:45:24.165Z,30.52
2022-08-28T09:47:56.085Z,30.53
2022-08-28T09:50:26.361Z,30.59
2022-08-28T09:53:09.347Z,30.71
2022-08-28T09:56:11.031Z,30.81
2022-08-28T09:58:59.592Z,30.92
2022-08-28T10:01:53.466Z,31.11
2022-08-28T10:05:12.402Z,31.23
2022-08-28T10:07:49.063Z,31.28
2022-08-28T10:10:48.916Z,31.37
2022-08-28T10:13:23.946Z,31.42
2022-08-28T10:16:18.581Z,31.47
2022-08-28T10:19:09.516Z,31.57
2022-08-28T10:21:51.082Z,31.59
2022-08-28T10:24:45.931Z,31.59
2022-08-28T10:27:48.770Z,31.68
2022-08-28T10:30:21.543Z,31.75
2022-08-28T10:33:21.269Z,31.81
2022-08-28T10:36:04.966Z,31.87
2022-08-28T10:38:42.307Z,31.97
2022-08-28T10:41:33.852Z,32.14
2022-08-28T10:44:03.384Z,32.24
2022-08-28T10:46:45.945Z,32.37
2022-08-28T10:49:36.501Z,32.56
2022-08-28T10:52:28.312Z,32.83
2022-08-28T10:55:23.795Z,33.15
2022-08-28T10:58:04.250Z,33.44
2022-08-28T11:00:33.960Z,33.80
2022-08-28T11:03:22.225Z,34.14
2022-08-28T11:06:08.235Z,34.54
2022-08-28T11:08:37.742Z,34.65
2022-08-28T11:11:34.265Z,34.69
2022-08-28T11:14:01.873Z,34.74
2022-08-28T11:16:30.217Z,34.94
2022-08-28T11:19:17.066Z,35.16
2022-08-28T11:22:04.062Z,35.44
2022-08-28T11:24:43.710Z,35.63
2022-08-28T11:27:23.642Z,35.68
2022-08-28T11:30:08.982Z,35.86
2022-08-28T11:32:38.083Z,36.10
2022-08-28T11:35:20.513Z,36.09
2022-08-28T11:37:52.302Z,36.18
2022-08-28T11:40:53.924Z,36.34
2022-08-28T11:43:23.964Z,36.45
2022-08-28T11:45:59.089Z,36.69
2022-08-28T11:48:39.135Z,36.92
2022-08-28T11:51:28.984Z,36.96
2022-08-28T11:54:20.768Z,37.03
2022-08-28T11:57:04.706Z,37.21
2022-08-28T12:00:03.010Z,37.42
2022-08-28T12:02:43.538Z,37.61
2022-08-28T12:05:16.719Z,37.71
2022-08-28T12:07:50.846Z,37.77
2022-08-28T12:10:24.316Z,37.84
2022-08-28T12:13:03.819Z,37.91
2022-08-28T12:15:31.874Z,38.03
2022-08-28T12:18:10.660Z,38.27
2022-08-28T12:20:44.610Z,38.41
2022-08-28T12:23:34.123Z,38.42
2022-08-28T12:26:22.935Z,38.41
2022-08-28T12:29:25.500Z,38.60
2022-08-28T12:32:12.609Z,38.55
2022-08-28T12:35:01.619Z,38.37
2022-08-28T12:37:52.146Z,38.30
2022-08-28T12:40:29.682Z,38.32
2022-08-28T12:43:28.247Z,38.38
2022-08-28T12:46:24.139Z,38.43
2022-08-28T12:49:03.808Z,38.58
2022-08-28T12:51:37.186Z,38.84
2022-08-28T12:54:08.281Z,39.18
2022-08-28T12:56:38.148Z,39.40
2022-08-28T12:59:43.689Z,39.45
2022-08-28T13:02:17.837Z,39.48
2022-08-28T13:05:09.171Z,39.57
2022-08-28T13:07:54.729Z,39.86
2022-08-28T13:10:33.719Z,40.03
2022-08-28T13:13:10.439Z,39.90
2022-08-28T13:16:00.930Z,39.99
2022-08-28T13:18:51.026Z,39.93
2022-08-28T13:21:19.993Z,39.92
2022-08-28T13:24:21.279Z,40.08
2022-08-28T13:27:00.186Z,40.28
2022-08-28T13:29:27.977Z,40.50
2022-08-28T13:32:04.849Z,40.52
2022-08-28T13:34:38.518Z,40.48
2022-08-28T13:37:47.336Z,40.44
2022-08-28T13:40:55.788Z,40.37
2022-08-28T13:43:11.288Z,40.48
2022-08-28T13:45:44.740Z,40.66
2022-08-28T13:48:16.297Z,40.76
2022-08-28T13:50:47.910Z,40.76
2022-08-28T13:53:19.835Z,40.78
2022-08-28T13:55:49.508Z,40.79
2022-08-28T13:58:17.231Z,41.00
2022-08-28T14:00:47.742Z,41.25
2022-08-28T14:03:34.755Z,41.26
2022-08-28T14:06:31.566Z,41.08
2022-08-28T14:08:59.413Z,41.04
2022-08-28T14:11:26.632Z,41.14
2022-08-28T14:13:55.795Z,41.32
2022-08-28T14:16:25.979Z,41.51
2022-08-28T14:18:56.401Z,41.64
2022-08-28T14:21:25.910Z,41.81
2022-08-28T14:23:53.473Z,42.00
2022-08-28T14:26:21.368Z,42.12
2022-08-28T14:28:48.598Z,42.18
2022-08-28T14:31:15.948Z,42.17
2022-08-28T14:33:46.294Z,42.02
2022-08-28T14:36:26.007Z,41.70
2022-08-28T14:39:00.820Z,41.27
2022-08-28T14:41:31.969Z,40.66
2022-08-28T14:43:59.200Z,40.18
2022-08-28T14:46:34.029Z,39.99
2022-08-28T14:49:09.177Z,39.84
2022-08-28T14:51:41.557Z,39.74
2022-08-28T14:54:12.420Z,39.54
2022-08-28T14:56:42.935Z,39.20
2022-08-28T14:59:23.668Z,39.11
2022-08-28T15:01:54.816Z,38.99
2022-08-28T15:04:29.151Z,38.72
2022-08-28T15:07:12.590Z,38.37
2022-08-28T15:09:42.755Z,38.01
2022-08-28T15:12:11.185Z,37.50
2022-08-28T15:14:51.912Z,37.03
2022-08-28T15:17:23.131Z,36.54
2022-08-28T15:20:03.104Z,36.12
2022-08-28T15:22:30.228Z,35.69
2022-08-28T15:24:58.176Z,35.35
2022-08-28T15:27:29.139Z,35.08
2022-08-28T15:29:56.503Z,34.87
2022-08-28T15:32:25.143Z,34.67
2022-08-28T15:34:53.056Z,34.47
2022-08-28T15:37:20.234Z,34.29
2022-08-28T15:40:07.144Z,34.08
2022-08-28T15:42:34.239Z,33.87
2022-08-28T15:45:01.429Z,33.71
2022-08-28T15:47:29.363Z,33.56
2022-08-28T15:49:57.110Z,33.42
2022-08-28T15:52:25.204Z,33.27
2022-08-28T15:54:53.233Z,33.14
2022-08-28T15:57:20.382Z,32.95
2022-08-28T15:59:50.003Z,32.75
2022-08-28T16:02:21.016Z,32.52
2022-08-28T16:04:48.779Z,32.29
2022-08-28T16:07:18.715Z,32.10
2022-08-28T16:09:50.073Z,31.92
2022-08-28T16:12:17.633Z,31.75
2022-08-28T16:14:44.902Z,31.58
2022-08-28T16:17:11.964Z,31.44
2022-08-28T16:19:42.496Z,31.30
2022-08-28T16:22:15.304Z,31.15
2022-08-28T16:24:43.920Z,30.98
2022-08-28T16:27:15.494Z,30.83
2022-08-28T16:29:45.284Z,30.64
2022-08-28T16:32:12.729Z,30.49
2022-08-28T16:34:39.995Z,30.33
2022-08-28T16:37:07.777Z,30.19
2022-08-28T16:39:36.113Z,30.04
2022-08-28T16:42:03.907Z,29.84
2022-08-28T16:44:31.087Z,29.76
2022-08-28T16:46:58.134Z,29.63
2022-08-28T16:49:25.276Z,29.51
2022-08-28T16:51:52.638Z,29.38
2022-08-28T16:54:20.970Z,29.28
2022-08-28T16:56:48.139Z,29.18
2022-08-28T16:59:19.927Z,29.06
2022-08-28T17:01:52.975Z,28.92
2022-08-28T17:04:21.182Z,28.64
2022-08-28T17:06:48.413Z,28.39
2022-08-28T17:09:15.685Z,28.15
2022-08-28T17:11:46.153Z,27.92
2022-08-28T17:14:21.629Z,27.66
2022-08-28T17:16:49.447Z,27.41
2022-08-28T17:19:18.047Z,27.19
2022-08-28T17:22:04.057Z,26.98
2022-08-28T17:24:31.105Z,26.84
2022-08-28T17:27:01.982Z,26.73
2022-08-28T17:29:33.378Z,26.61
2022-08-28T17:32:00.582Z,26.42
2022-08-28T17:34:30.250Z,26.19
2022-08-28T17:36:57.778Z,26.03
2022-08-28T17:39:25.252Z,25.93
2022-08-28T17:41:52.358Z,25.85
2022-08-28T17:44:19.541Z,25.77
2022-08-28T17:46:46.754Z,25.70
2022-08-28T17:49:15.042Z,25.64
2022-08-28T17:51:44.317Z,25.58
2022-08-28T17:54:21.320Z,25.48
2022-08-28T17:56:51.473Z,25.36
2022-08-28T17:59:32.903Z,25.26
2022-08-28T18:02:06.164Z,25.17
2022-08-28T18:04:35.826Z,25.08
2022-08-28T18:07:02.939Z,25.00
2022-08-28T18:09:30.268Z,24.89
2022-08-28T18:11:57.303Z,24.80
2022-08-28T18:14:24.388Z,24.69
2022-08-28T18:16:52.142Z,24.62
2022-08-28T18:19:19.634Z,24.58
2022-08-28T18:21:46.722Z,24.54
2022-08-28T18:24:13.853Z,24.47
2022-08-28T18:26:42.430Z,24.39
2022-08-28T18:29:11.906Z,24.25
2022-08-28T18:31:41.054Z,24.07
2022-08-28T18:34:09.845Z,23.92
2022-08-28T18:36:42.988Z,23.72
2022-08-28T18:39:11.505Z,23.68
2022-08-28T18:41:44.588Z,23.62
2022-08-28T18:44:13.547Z,23.57
2022-08-28T18:46:43.321Z,23.49
2022-08-28T18:49:11.584Z,23.48
2022-08-28T18:51:41.185Z,23.46
2022-08-28T18:54:09.000Z,23.45
2022-08-28T18:56:38.383Z,23.46
2022-08-28T18:59:06.973Z,23.47
2022-08-28T19:01:35.661Z,23.49
2022-08-28T19:04:03.807Z,23.43
2022-08-28T19:06:35.814Z,23.36
2022-08-28T19:09:05.070Z,23.30
2022-08-28T19:11:35.328Z,23.24
2022-08-28T19:14:03.596Z,23.16
2022-08-28T19:16:34.772Z,23.06
2022-08-28T19:19:03.359Z,23.02
2022-08-28T19:21:32.637Z,22.95
2022-08-28T19:24:00.237Z,22.89
2022-08-28T19:26:49.889Z,22.82
2022-08-28T19:29:16.991Z,22.75
2022-08-28T19:31:46.894Z,22.67
2022-08-28T19:34:14.034Z,22.61
2022-08-28T19:36:41.502Z,22.44
2022-08-28T19:39:08.736Z,22.37
2022-08-28T19:41:38.962Z,22.29
2022-08-28T19:44:06.978Z,22.17
2022-08-28T19:46:37.268Z,22.17
2022-08-28T19:49:06.766Z,22.13
2022-08-28T19:51:38.886Z,22.08
2022-08-28T19:54:10.822Z,22.02
2022-08-28T19:56:42.106Z,21.94
2022-08-28T19:59:10.044Z,21.86
2022-08-28T20:01:44.870Z,21.80
2022-08-28T20:04:17.057Z,21.77
2022-08-28T20:06:46.422Z,21.74
2022-08-28T20:09:16.900Z,21.71
2022-08-28T20:11:46.379Z,21.70
2022-08-28T20:14:16.136Z,21.69
2022-08-28T20:16:46.113Z,21.67
2022-08-28T20:19:14.355Z,21.64
2022-08-28T20:21:46.515Z,21.61
2022-08-28T20:24:23.020Z,21.58
2022-08-28T20:26:52.590Z,21.55
2022-08-28T20:29:19.731Z,21.49
2022-08-28T20:31:48.163Z,21.46
2022-08-28T20:34:18.613Z,21.43
2022-08-28T20:36:47.475Z,21.39
2022-08-28T20:39:19.020Z,21.36
2022-08-28T20:41:49.092Z,21.33
2022-08-28T20:44:19.677Z,21.28
2022-08-28T20:46:51.523Z,21.24
2022-08-28T20:49:26.299Z,21.21
2022-08-28T20:51:58.362Z,21.19
2022-08-28T20:54:41.078Z,21.16
2022-08-28T20:57:13.312Z,21.14
2022-08-28T20:59:43.732Z,21.12
2022-08-28T21:02:18.061Z,21.09
2022-08-28T21:04:47.173Z,21.07
2022-08-28T21:07:17.838Z,21.04
2022-08-28T21:10:05.805Z,20.98
2022-08-28T21:12:38.704Z,20.93
2022-08-28T21:15:11.859Z,20.89
2022-08-28T21:17:40.625Z,20.86
2022-08-28T21:20:19.239Z,20.84
2022-08-28T21:22:53.532Z,20.80
2022-08-28T21:25:27.418Z,20.74
2022-08-28T21:27:57.309Z,20.68
2022-08-28T21:30:29.726Z,20.64
2022-08-28T21:33:00.758Z,20.59
2022-08-28T21:35:28.870Z,20.53
2022-08-28T21:37:57.040Z,20.48
2022-08-28T21:40:27.608Z,20.48
2022-08-28T21:42:56.586Z,20.46
2022-08-28T21:45:23.847Z,20.44
2022-08-28T21:47:51.879Z,20.44
2022-08-28T21:50:20.169Z,20.38
2022-08-28T21:52:47.192Z,20.44
2022-08-28T21:55:15.659Z,20.43
2022-08-28T21:57:42.903Z,20.42
2022-08-28T22:00:17.300Z,20.41
2022-08-28T22:02:44.686Z,20.38
2022-08-28T22:05:12.322Z,20.34
2022-08-28T22:07:39.901Z,20.31
2022-08-28T22:10:08.731Z,20.28
2022-08-28T22:12:35.849Z,20.26
2022-08-28T22:15:05.627Z,20.23
2022-08-28T22:17:32.827Z,20.21
2022-08-28T22:19:59.862Z,20.19
2022-08-28T22:22:45.260Z,20.16
2022-08-28T22:25:12.717Z,20.13
2022-08-28T22:27:39.814Z,20.09
2022-08-28T22:30:07.940Z,20.05
2022-08-28T22:32:35.034Z,20.01
2022-08-28T22:35:02.506Z,19.97
2022-08-28T22:37:29.531Z,19.94
2022-08-28T22:39:57.628Z,19.92
2022-08-28T22:42:24.810Z,19.90
2022-08-28T22:44:51.888Z,19.86
2022-08-28T22:47:19.158Z,19.83
2022-08-28T22:49:46.683Z,19.78
2022-08-28T22:52:14.934Z,19.74
2022-08-28T22:54:43.219Z,19.69
2022-08-28T22:57:10.579Z,19.64
2022-08-28T22:59:37.655Z,19.59
2022-08-28T23:02:04.754Z,19.51
2022-08-28T23:04:31.873Z,19.54
2022-08-28T23:06:59.246Z,19.51
2022-08-28T23:09:27.062Z,19.49
2022-08-28T23:11:54.108Z,19.48
2022-08-28T23:14:22.082Z,19.47
2022-08-28T23:16:50.403Z,19.45
2022-08-28T23:19:18.264Z,19.43
2022-08-28T23:21:45.704Z,19.42
2022-08-28T23:24:15.494Z,19.42
2022-08-28T23:26:44.474Z,19.42
2022-08-28T23:29:12.246Z,19.43
2022-08-28T23:31:39.717Z,19.45
2022-08-28T23:34:07.632Z,19.49
2022-08-28T23:36:36.622Z,19.55
2022-08-28T23:39:04.825Z,19.60
2022-08-28T23:41:33.394Z,19.61
2022-08-28T23:44:03.224Z,19.62
2022-08-28T23:46:33.050Z,19.60
2022-08-28T23:49:00.360Z,19.54
2022-08-28T23:51:27.563Z,19.47
2022-08-28T23:53:55.308Z,19.42
2022-08-28T23:56:23.170Z,19.38
2022-08-28T23:58:55.442Z,19.34
